Time;durP1;ratioP1;P1;durP2;ratioP2;P2;SDS_P1;SDS_P2;PMS_P1;PMS_P2;Temp;Humidity;BMP_temperature;BMP_pressure;BME280_temperature;BME280_humidity;BME280_pressure;Samples;Min_cycle;Max_cycle;Signal;HPM_P1;HPM_P2
2023/10/20 00:01:28;;;;;;;70.32;43.33;;;8.30;99.90;;;;;;5031242;28;20053;-74
2023/10/20 00:03:54;;;;;;;79.97;44.72;;;8.40;99.90;;;;;;5018668;28;20463;-74
2023/10/20 00:06:20;;;;;;;79.13;46.58;;;8.30;99.90;;;;;;5024812;28;20178;-73
2023/10/20 00:08:59;;;;;;;89.78;48.70;;;8.40;99.90;;;;;;5017471;28;20042;-73
2023/10/20 00:11:28;;;;;;;85.00;48.63;;;8.40;99.90;;;;;;5014110;28;20149;-73
2023/10/20 00:13:53;;;;;;;83.15;47.17;;;8.40;99.90;;;;;;5024960;28;20455;-74
2023/10/20 00:16:28;;;;;;;82.13;46.20;;;8.40;99.90;;;;;;5021438;28;20088;-74
2023/10/20 00:18:56;;;;;;;84.28;45.53;;;8.40;99.90;;;;;;5009593;28;20561;-74
2023/10/20 00:21:23;;;;;;;83.30;47.75;;;8.30;99.90;;;;;;4997843;28;20046;-74
2023/10/20 00:23:49;;;;;;;80.20;48.28;;;8.40;99.90;;;;;;5019678;28;20041;-74
2023/10/20 00:26:16;;;;;;;87.25;48.58;;;8.40;99.90;;;;;;5006048;28;20404;-74
2023/10/20 00:28:41;;;;;;;83.82;47.38;;;8.40;99.90;;;;;;5000151;28;20040;-74
2023/10/20 00:31:11;;;;;;;81.85;47.85;;;8.40;99.90;;;;;;4999915;28;20038;-73
2023/10/20 00:33:39;;;;;;;81.47;46.60;;;8.40;99.90;;;;;;5017766;28;20101;-73
2023/10/20 00:36:06;;;;;;;88.82;49.35;;;8.30;99.90;;;;;;5025051;28;20288;-73
2023/10/20 00:38:32;;;;;;;92.45;47.92;;;8.30;99.90;;;;;;5015443;28;20054;-74
2023/10/20 00:40:57;;;;;;;95.13;48.53;;;8.30;99.90;;;;;;5022382;28;20049;-74
2023/10/20 00:43:35;;;;;;;88.15;48.63;;;8.30;99.90;;;;;;5007783;28;20141;-73
2023/10/20 00:46:01;;;;;;;106.07;51.35;;;8.30;99.90;;;;;;4989022;28;20053;-73
2023/10/20 00:48:27;;;;;;;94.60;49.38;;;8.30;99.90;;;;;;5013762;28;20125;-74
2023/10/20 00:50:53;;;;;;;103.93;49.03;;;8.30;99.90;;;;;;4999396;28;20260;-74
2023/10/20 00:53:19;;;;;;;91.65;49.28;;;8.30;99.90;;;;;;4997198;28;20052;-73
2023/10/20 00:55:45;;;;;;;109.45;51.17;;;8.30;99.90;;;;;;4991053;28;20050;-73
2023/10/20 00:58:11;;;;;;;94.75;49.10;;;8.40;99.90;;;;;;5009483;28;20054;-74
2023/10/20 01:00:37;;;;;;;116.75;51.85;;;8.40;99.90;;;;;;5016977;28;20049;-73
2023/10/20 01:03:02;;;;;;;99.15;49.50;;;8.30;99.90;;;;;;5004274;28;20068;-73
2023/10/20 01:05:28;;;;;;;119.05;53.25;;;8.30;99.90;;;;;;5010541;28;20038;-73
2023/10/20 01:07:54;;;;;;;117.78;52.40;;;8.30;99.90;;;;;;5027232;28;20485;-73
2023/10/20 01:10:20;;;;;;;112.97;52.03;;;8.30;99.90;;;;;;5018822;28;20511;-73
2023/10/20 01:12:46;;;;;;;116.90;52.78;;;8.30;99.90;;;;;;5016844;28;20060;-74
2023/10/20 01:15:15;;;;;;;108.45;53.20;;;8.40;99.90;;;;;;5024144;28;20052;-74
2023/10/20 01:17:41;;;;;;;117.60;54.22;;;8.20;99.90;;;;;;5010958;28;20038;-74
2023/10/20 01:20:08;;;;;;;110.85;51.05;;;8.30;99.90;;;;;;5001753;28;20056;-74
2023/10/20 01:22:34;;;;;;;117.07;53.20;;;8.30;99.90;;;;;;5017642;28;20098;-73
2023/10/20 01:25:00;;;;;;;116.80;51.80;;;8.30;99.90;;;;;;5010921;28;20077;-73
2023/10/20 01:27:26;;;;;;;133.73;56.05;;;8.30;99.90;;;;;;5008493;28;20049;-73
2023/10/20 01:29:52;;;;;;;117.25;52.80;;;8.30;99.90;;;;;;5006654;28;20196;-73
2023/10/20 01:32:18;;;;;;;124.32;53.92;;;8.30;99.90;;;;;;5025567;28;20558;-73
2023/10/20 01:34:43;;;;;;;137.50;55.45;;;8.30;99.90;;;;;;4998408;28;20400;-72
2023/10/20 01:37:11;;;;;;;117.10;54.63;;;8.30;99.90;;;;;;5010525;28;20353;-73
2023/10/20 01:39:41;;;;;;;127.05;54.25;;;8.30;99.90;;;;;;4993144;28;20543;-74
2023/10/20 01:42:08;;;;;;;130.45;54.60;;;8.30;99.90;;;;;;5031844;28;20495;-73
2023/10/20 01:44:36;;;;;;;127.43;55.65;;;8.30;99.90;;;;;;5004749;28;20400;-73
2023/10/20 01:47:02;;;;;;;127.75;54.65;;;8.30;99.90;;;;;;5022078;28;20571;-73
2023/10/20 01:49:28;;;;;;;126.82;55.45;;;8.30;99.90;;;;;;5008710;28;20195;-73
2023/10/20 01:51:54;;;;;;;137.13;57.20;;;8.30;99.90;;;;;;5009651;28;20060;-73
2023/10/20 01:54:20;;;;;;;120.03;57.00;;;8.30;99.90;;;;;;5017849;28;20184;-74
2023/10/20 01:56:46;;;;;;;151.48;62.10;;;8.30;99.90;;;;;;5022523;28;20377;-74
2023/10/20 01:59:11;;;;;;;121.63;58.55;;;8.30;99.90;;;;;;5009254;28;20041;-72
2023/10/20 02:01:37;;;;;;;126.28;59.03;;;8.30;99.90;;;;;;5019752;28;20054;-72
2023/10/20 02:04:06;;;;;;;143.35;63.20;;;8.30;99.90;;;;;;5016699;28;20094;-73
2023/10/20 02:06:32;;;;;;;135.48;60.30;;;8.30;99.90;;;;;;5021215;28;20049;-72
2023/10/20 02:08:58;;;;;;;133.13;60.97;;;8.20;99.90;;;;;;5021650;28;20042;-73
2023/10/20 02:11:24;;;;;;;135.15;60.28;;;8.20;99.90;;;;;;5020097;28;20286;-73
2023/10/20 02:13:49;;;;;;;127.10;61.47;;;8.20;99.90;;;;;;5023281;28;20436;-73
2023/10/20 02:16:15;;;;;;;148.25;63.05;;;8.30;99.90;;;;;;5017161;28;20056;-73
2023/10/20 02:18:41;;;;;;;116.97;59.08;;;8.20;99.90;;;;;;5023709;28;20041;-74
2023/10/20 02:21:09;;;;;;;138.10;59.38;;;8.20;99.90;;;;;;5019970;28;20246;-73
2023/10/20 02:23:36;;;;;;;143.68;62.03;;;8.20;99.90;;;;;;5024878;28;20056;-73
2023/10/20 02:26:06;;;;;;;135.73;59.97;;;8.20;99.90;;;;;;5005322;28;20045;-74
2023/10/20 02:28:36;;;;;;;124.53;58.58;;;8.20;99.90;;;;;;5023958;28;20447;-73
2023/10/20 02:31:10;;;;;;;105.65;55.13;;;8.20;99.90;;;;;;5021967;28;20038;-75
2023/10/20 02:33:36;;;;;;;120.28;57.10;;;8.20;99.90;;;;;;5023511;28;20637;-74
2023/10/20 02:36:01;;;;;;;112.88;56.17;;;8.20;99.90;;;;;;5007211;28;20135;-73
2023/10/20 02:38:27;;;;;;;100.78;54.22;;;8.20;99.90;;;;;;5018838;28;20049;-74
2023/10/20 02:40:54;;;;;;;112.10;56.83;;;8.20;99.90;;;;;;5021275;28;20153;-73
2023/10/20 02:43:24;;;;;;;106.35;54.85;;;8.20;99.90;;;;;;5034006;28;20080;-73
2023/10/20 02:45:52;;;;;;;105.35;54.80;;;8.20;99.90;;;;;;5036664;28;21089;-73
2023/10/20 02:48:22;;;;;;;111.70;55.13;;;8.30;99.90;;;;;;5023558;28;20054;-73
2023/10/20 02:50:47;;;;;;;114.28;57.50;;;8.20;99.90;;;;;;5017809;28;20302;-73
2023/10/20 02:53:13;;;;;;;102.93;56.53;;;8.20;99.90;;;;;;5038757;28;20045;-73
2023/10/20 02:55:44;;;;;;;116.80;59.47;;;8.20;99.90;;;;;;5008028;28;20050;-73
2023/10/20 02:58:10;;;;;;;116.30;62.03;;;8.20;99.90;;;;;;5019483;28;20538;-73
2023/10/20 03:00:44;;;;;;;104.28;60.40;;;8.20;99.90;;;;;;5020945;28;20063;-73
2023/10/20 03:03:13;;;;;;;115.65;61.65;;;8.20;99.90;;;;;;5022507;28;20049;-73
2023/10/20 03:05:43;;;;;;;103.38;59.78;;;8.20;99.90;;;;;;5020610;28;20034;-72
2023/10/20 03:08:11;;;;;;;109.45;60.88;;;8.20;99.90;;;;;;5018139;28;20511;-73
2023/10/20 03:10:38;;;;;;;115.82;60.92;;;8.20;99.90;;;;;;5006743;28;20050;-72
2023/10/20 03:13:04;;;;;;;96.32;57.35;;;8.20;99.90;;;;;;5013526;28;20065;-73
2023/10/20 03:15:37;;;;;;;98.30;57.38;;;8.20;99.90;;;;;;5006887;28;20053;-73
2023/10/20 03:18:03;;;;;;;100.47;56.88;;;8.20;99.90;;;;;;5021589;28;20037;-73
2023/10/20 03:20:30;;;;;;;88.15;54.25;;;8.20;99.90;;;;;;5003535;28;20408;-72
2023/10/20 03:22:56;;;;;;;94.38;55.13;;;8.20;99.90;;;;;;5022207;28;20076;-73
2023/10/20 03:25:22;;;;;;;89.55;54.47;;;8.20;99.90;;;;;;5019606;28;20045;-72
2023/10/20 03:27:48;;;;;;;94.95;55.45;;;8.20;99.90;;;;;;5019866;28;20094;-73
2023/10/20 03:30:17;;;;;;;87.57;53.22;;;8.20;99.90;;;;;;5020023;28;20081;-72
2023/10/20 03:32:42;;;;;;;85.68;54.55;;;8.20;99.90;;;;;;5022733;28;20135;-72
2023/10/20 03:35:08;;;;;;;87.28;52.85;;;8.20;99.90;;;;;;5004046;28;20137;-72
2023/10/20 03:37:34;;;;;;;78.78;52.05;;;8.20;99.90;;;;;;5023452;28;20046;-72
2023/10/20 03:40:00;;;;;;;81.43;52.92;;;8.10;99.90;;;;;;5018580;28;20128;-73
2023/10/20 03:42:27;;;;;;;85.00;51.95;;;8.20;99.90;;;;;;5007290;28;20041;-72
2023/10/20 03:44:54;;;;;;;88.53;53.60;;;8.20;99.90;;;;;;5004515;28;20055;-72
2023/10/20 03:47:21;;;;;;;91.68;53.72;;;8.20;99.90;;;;;;5005831;28;20033;-73
2023/10/20 03:49:51;;;;;;;88.05;53.33;;;8.20;99.90;;;;;;5016841;28;20056;-73
2023/10/20 03:52:18;;;;;;;83.97;52.55;;;8.20;99.90;;;;;;5016500;28;20045;-73
2023/10/20 03:54:45;;;;;;;80.22;51.65;;;8.10;99.90;;;;;;5008040;28;20134;-72
2023/10/20 03:57:15;;;;;;;77.53;50.55;;;8.20;99.90;;;;;;5005710;28;20047;-72
2023/10/20 03:59:44;;;;;;;80.53;50.58;;;8.20;99.90;;;;;;5019360;28;20045;-72
2023/10/20 04:02:11;;;;;;;88.15;53.42;;;8.20;99.90;;;;;;5016699;28;20500;-73
2023/10/20 04:04:36;;;;;;;80.50;51.80;;;8.10;99.90;;;;;;5013522;28;20119;-73
2023/10/20 04:07:02;;;;;;;80.10;47.90;;;8.10;99.90;;;;;;5016284;28;20050;-72
2023/10/20 04:09:29;;;;;;;79.45;49.80;;;8.20;99.90;;;;;;5001711;28;20046;-73
2023/10/20 04:11:54;;;;;;;83.88;49.75;;;8.20;99.90;;;;;;5012022;28;20080;-73
2023/10/20 04:14:20;;;;;;;79.43;49.38;;;8.20;99.90;;;;;;5020023;28;20077;-73
2023/10/20 04:16:46;;;;;;;70.93;46.55;;;8.20;99.90;;;;;;5014954;28;20038;-73
2023/10/20 04:19:15;;;;;;;80.10;47.83;;;8.20;99.90;;;;;;5023533;28;20042;-73
2023/10/20 04:21:45;;;;;;;75.03;48.03;;;8.10;99.90;;;;;;5019132;28;20230;-73
2023/10/20 04:24:11;;;;;;;75.57;47.72;;;8.10;99.90;;;;;;5022858;28;20054;-72
2023/10/20 04:26:39;;;;;;;77.68;48.97;;;8.10;99.90;;;;;;5017981;28;20067;-73
2023/10/20 04:43:01;;;;;;;71.88;46.90;;;8.10;99.90;;;;;;5018978;28;20449;-72
2023/10/20 04:56:21;;;;;;;72.00;46.08;;;8.10;99.90;;;;;;5019167;28;20080;-71
2023/10/20 04:58:34;;;;;;;75.55;46.45;;;8.10;99.90;;;;;;5014786;28;20046;-72
2023/10/20 05:04:28;;;;;;;68.50;46.95;;;8.00;99.90;;;;;;5015339;28;20041;-72
2023/10/20 05:07:05;;;;;;;69.63;45.75;;;8.00;99.90;;;;;;5001468;28;20881;-72
2023/10/20 05:09:40;;;;;;;70.95;47.65;;;8.00;99.90;;;;;;5020971;28;20056;-72
2023/10/20 05:12:06;;;;;;;71.95;45.85;;;8.00;99.90;;;;;;5015655;28;20041;-72
2023/10/20 05:14:32;;;;;;;66.25;44.88;;;8.00;99.90;;;;;;5021024;28;20472;-72
2023/10/20 05:16:58;;;;;;;66.65;45.45;;;8.00;99.90;;;;;;5016814;28;20143;-72
2023/10/20 05:19:25;;;;;;;65.75;44.28;;;7.90;99.90;;;;;;5022365;28;20132;-71
2023/10/20 05:21:51;;;;;;;63.72;44.85;;;8.00;99.90;;;;;;5020155;28;20043;-72
2023/10/20 05:24:17;;;;;;;69.15;45.33;;;8.00;99.90;;;;;;5022155;28;20049;-72
2023/10/20 05:26:46;;;;;;;62.58;44.00;;;7.90;99.90;;;;;;5018577;28;20091;-72
2023/10/20 05:29:14;;;;;;;72.90;45.90;;;8.00;99.90;;;;;;5017579;28;20081;-71
2023/10/20 05:31:40;;;;;;;65.10;43.58;;;8.00;99.90;;;;;;5018668;28;20150;-72
2023/10/20 05:34:05;;;;;;;60.92;43.70;;;7.90;99.90;;;;;;5005110;28;20111;-71
2023/10/20 05:36:31;;;;;;;58.20;43.42;;;8.00;99.90;;;;;;5019454;28;20042;-72
2023/10/20 05:38:57;;;;;;;62.63;44.78;;;8.00;99.90;;;;;;5004618;28;20049;-71
2023/10/20 05:41:22;;;;;;;57.15;41.80;;;8.00;99.90;;;;;;5020049;28;20364;-72
2023/10/20 05:43:52;;;;;;;62.10;42.88;;;8.00;99.90;;;;;;5012411;28;20044;-71
2023/10/20 05:46:18;;;;;;;54.33;41.60;;;8.00;99.90;;;;;;5018606;28;20061;-72
2023/10/20 05:48:44;;;;;;;52.45;41.88;;;8.00;99.90;;;;;;5033330;28;20095;-72
2023/10/20 05:51:11;;;;;;;54.05;42.90;;;8.00;99.90;;;;;;5018084;28;20048;-71
2023/10/20 05:53:37;;;;;;;56.00;41.30;;;8.00;99.90;;;;;;5001553;28;20132;-71
2023/10/20 05:56:03;;;;;;;51.20;40.38;;;8.00;99.90;;;;;;5035707;28;20192;-71
2023/10/20 05:58:32;;;;;;;50.92;40.78;;;8.00;99.90;;;;;;5019072;28;20457;-71
2023/10/20 06:01:11;;;;;;;48.27;37.80;;;7.90;99.90;;;;;;5003610;28;20037;-71
2023/10/20 06:03:37;;;;;;;44.83;37.33;;;7.90;99.90;;;;;;5017696;28;20312;-71
2023/10/20 06:06:03;;;;;;;42.70;34.78;;;7.90;99.90;;;;;;5039726;28;20046;-71
2023/10/20 06:08:30;;;;;;;39.60;32.70;;;8.00;99.90;;;;;;5019279;28;20103;-71
2023/10/20 06:11:03;;;;;;;37.55;31.77;;;7.90;99.90;;;;;;4998714;28;20520;-71
2023/10/20 06:13:30;;;;;;;35.60;31.23;;;7.90;99.90;;;;;;5007954;28;20050;-72
2023/10/20 06:15:57;;;;;;;36.00;30.63;;;7.90;99.90;;;;;;5000466;28;20037;-76
2023/10/20 06:18:27;;;;;;;36.70;30.97;;;8.00;99.90;;;;;;5005065;28;20086;-76
2023/10/20 06:20:52;;;;;;;34.85;30.35;;;7.90;99.90;;;;;;5021352;28;20045;-72
2023/10/20 06:23:18;;;;;;;33.50;28.52;;;8.00;99.90;;;;;;5020481;28;20049;-72
2023/10/20 06:25:44;;;;;;;31.98;28.52;;;7.90;99.90;;;;;;5022598;28;20034;-72
2023/10/20 06:28:10;;;;;;;29.80;26.77;;;7.90;99.90;;;;;;5021484;28;20037;-71
2023/10/20 06:30:42;;;;;;;31.75;27.17;;;8.00;99.90;;;;;;5024613;28;20401;-72
2023/10/20 06:33:16;;;;;;;29.35;26.15;;;7.90;99.90;;;;;;5016006;28;20041;-73
2023/10/20 06:35:52;;;;;;;32.15;26.10;;;7.90;99.90;;;;;;5019994;28;20049;-73
2023/10/20 06:41:07;;;;;;;29.67;26.35;;;7.90;99.90;;;;;;5014566;28;20484;-72
2023/10/20 06:43:33;;;;;;;27.83;24.73;;;7.90;99.90;;;;;;5038717;28;20052;-71
2023/10/20 06:46:01;;;;;;;25.73;22.95;;;8.00;99.90;;;;;;5004649;28;20041;-72
2023/10/20 06:48:28;;;;;;;26.85;23.95;;;8.00;99.90;;;;;;5019928;28;20046;-72
2023/10/20 06:50:54;;;;;;;28.38;24.05;;;8.00;99.90;;;;;;5004298;28;20046;-73
2023/10/20 06:53:20;;;;;;;26.52;22.92;;;7.90;99.90;;;;;;4997263;28;20049;-72
2023/10/20 06:55:49;;;;;;;23.90;21.40;;;8.00;99.90;;;;;;5023852;28;20052;-72
2023/10/20 06:58:18;;;;;;;24.50;21.50;;;8.00;99.90;;;;;;5020823;28;20125;-73
2023/10/20 07:00:47;;;;;;;23.90;21.35;;;8.00;99.90;;;;;;5020850;28;20408;-73
2023/10/20 07:03:14;;;;;;;23.45;20.45;;;8.00;99.90;;;;;;5024320;28;20124;-72
2023/10/20 07:05:44;;;;;;;24.95;19.85;;;8.00;99.90;;;;;;5018044;28;20496;-72
2023/10/20 07:08:10;;;;;;;23.17;20.40;;;8.00;99.90;;;;;;5004652;28;20107;-72
2023/10/20 07:10:37;;;;;;;21.27;18.50;;;8.00;99.90;;;;;;5004335;28;20118;-72
2023/10/20 07:13:08;;;;;;;22.90;19.17;;;8.10;99.90;;;;;;5004713;28;20454;-71
2023/10/20 07:15:35;;;;;;;21.15;18.67;;;8.00;99.90;;;;;;5003971;28;20409;-71
2023/10/20 07:18:01;;;;;;;20.85;18.60;;;8.00;99.90;;;;;;5018678;28;20111;-71
2023/10/20 07:20:28;;;;;;;20.23;17.48;;;8.10;99.90;;;;;;5019824;28;20049;-73
2023/10/20 07:22:54;;;;;;;17.52;15.73;;;8.10;99.90;;;;;;5020271;28;20046;-71
2023/10/20 07:25:20;;;;;;;19.65;16.85;;;8.00;99.90;;;;;;5002650;28;20225;-72
2023/10/20 07:27:46;;;;;;;17.42;15.55;;;8.00;99.90;;;;;;5014886;28;20124;-72
2023/10/20 07:30:12;;;;;;;18.55;15.75;;;8.10;99.90;;;;;;5008762;28;20083;-72
2023/10/20 07:32:38;;;;;;;20.52;16.42;;;8.10;99.90;;;;;;5002075;28;20143;-72
2023/10/20 07:35:04;;;;;;;18.58;16.65;;;8.10;99.90;;;;;;5021837;28;20041;-72
2023/10/20 07:37:31;;;;;;;17.77;15.65;;;8.10;99.90;;;;;;5020228;28;20766;-72
2023/10/20 07:39:58;;;;;;;18.08;16.17;;;8.00;99.90;;;;;;5017915;28;20064;-71
2023/10/20 07:42:24;;;;;;;17.83;15.45;;;8.10;99.90;;;;;;5009976;28;20045;-72
2023/10/20 07:44:50;;;;;;;17.15;15.30;;;8.10;99.90;;;;;;5020849;28;20034;-72
2023/10/20 07:47:16;;;;;;;15.95;14.20;;;8.10;99.90;;;;;;5020513;28;20053;-72
2023/10/20 07:49:41;;;;;;;16.17;14.43;;;8.10;99.90;;;;;;5017375;28;20385;-73
2023/10/20 07:52:08;;;;;;;14.77;11.65;;;8.00;99.90;;;;;;5036223;28;20448;-72
2023/10/20 07:54:34;;;;;;;16.00;12.73;;;8.10;99.90;;;;;;5018493;28;20061;-72
2023/10/20 07:57:00;;;;;;;16.10;13.00;;;8.10;99.90;;;;;;5021744;28;20487;-73
2023/10/20 07:59:26;;;;;;;13.32;11.93;;;8.10;99.90;;;;;;5014117;28;20137;-72
2023/10/20 08:01:51;;;;;;;13.25;11.45;;;8.10;99.90;;;;;;5017349;28;20388;-71
2023/10/20 08:04:17;;;;;;;14.57;11.65;;;8.10;99.90;;;;;;5017040;28;20106;-72
2023/10/20 08:06:43;;;;;;;12.45;10.80;;;8.10;99.90;;;;;;5014857;28;20045;-71
2023/10/20 08:09:09;;;;;;;12.73;9.48;;;8.10;99.90;;;;;;5017679;28;20053;-70
2023/10/20 08:11:35;;;;;;;10.65;8.82;;;8.10;99.90;;;;;;5021368;28;20748;-71
2023/10/20 08:14:05;;;;;;;11.68;9.27;;;8.10;99.90;;;;;;5000198;28;20045;-72
2023/10/20 08:16:36;;;;;;;10.85;7.85;;;8.10;99.90;;;;;;5016239;28;20127;-73
2023/10/20 08:19:02;;;;;;;10.02;7.45;;;8.10;99.90;;;;;;5015099;28;20449;-71
2023/10/20 08:21:29;;;;;;;9.27;7.70;;;8.20;99.90;;;;;;5002728;28;20048;-72
2023/10/20 08:23:58;;;;;;;8.43;6.70;;;8.10;99.90;;;;;;5016051;28;20435;-72
2023/10/20 08:26:24;;;;;;;8.38;6.35;;;8.10;99.90;;;;;;5014905;28;20041;-71
2023/10/20 08:28:50;;;;;;;9.15;6.13;;;8.10;99.90;;;;;;5001374;28;20084;-72
2023/10/20 08:31:21;;;;;;;8.85;5.63;;;8.10;99.90;;;;;;5018540;28;20482;-72
2023/10/20 08:33:48;;;;;;;7.50;5.95;;;8.10;99.90;;;;;;5020387;28;20068;-71
2023/10/20 08:36:20;;;;;;;6.50;5.13;;;8.10;99.90;;;;;;5018428;28;20103;-71
2023/10/20 08:38:49;;;;;;;8.40;6.68;;;8.10;99.90;;;;;;5020105;28;20052;-73
2023/10/20 08:41:19;;;;;;;7.28;5.78;;;8.10;99.90;;;;;;5019991;28;20077;-72
2023/10/20 08:43:46;;;;;;;7.03;5.47;;;8.10;99.90;;;;;;5018521;28;20049;-72
2023/10/20 08:46:16;;;;;;;6.65;5.43;;;8.00;99.90;;;;;;5016603;28;20053;-72
2023/10/20 08:48:43;;;;;;;6.45;5.10;;;8.00;99.90;;;;;;5017373;28;20042;-80
2023/10/20 08:51:11;;;;;;;6.88;4.68;;;8.00;99.90;;;;;;5020093;28;20049;-79
2023/10/20 08:53:37;;;;;;;6.93;5.10;;;8.00;99.90;;;;;;5004880;28;20049;-81
2023/10/20 08:56:09;;;;;;;7.03;5.38;;;8.00;99.90;;;;;;5017711;28;20053;-77
2023/10/20 08:58:36;;;;;;;6.05;4.28;;;8.00;99.90;;;;;;5018014;28;20038;-79
2023/10/20 09:01:06;;;;;;;6.47;4.35;;;7.90;99.90;;;;;;5004048;28;20047;-78
2023/10/20 09:03:42;;;;;;;6.32;4.43;;;7.90;99.90;;;;;;5037187;28;20120;-79
2023/10/20 09:06:11;;;;;;;4.80;3.83;;;7.90;99.90;;;;;;5035937;28;20056;-81
2023/10/20 09:08:38;;;;;;;5.25;3.75;;;7.90;99.90;;;;;;4998527;28;20053;-81
2023/10/20 09:11:11;;;;;;;5.63;4.28;;;7.90;99.90;;;;;;5006620;28;20095;-81
2023/10/20 09:13:39;;;;;;;5.53;4.45;;;7.80;99.90;;;;;;5018161;28;20041;-82
2023/10/20 09:16:10;;;;;;;6.00;3.90;;;7.80;99.90;;;;;;5005332;28;20065;-79
2023/10/20 09:18:49;;;;;;;;;;;7.80;99.90;;;;;;5000838;28;20050;-83
2023/10/20 09:21:20;;;;;;;4.93;3.50;;;7.80;99.90;;;;;;5034180;28;20008;-81
2023/10/20 09:24:00;;;;;;;5.05;3.85;;;7.80;99.90;;;;;;5021726;28;20085;-81
2023/10/20 09:26:29;;;;;;;5.05;3.72;;;7.80;99.90;;;;;;5017848;28;20059;-80
2023/10/20 09:28:56;;;;;;;5.07;3.90;;;7.80;99.90;;;;;;5038097;28;20080;-79
2023/10/20 09:31:25;;;;;;;6.30;4.38;;;7.70;99.90;;;;;;5017682;28;20046;-78
2023/10/20 09:33:51;;;;;;;4.00;3.05;;;7.70;99.90;;;;;;5036528;28;20056;-77
2023/10/20 09:36:18;;;;;;;4.30;3.15;;;7.70;99.90;;;;;;5016691;28;20347;-81
2023/10/20 09:38:52;;;;;;;5.35;3.38;;;7.70;99.90;;;;;;5020953;28;20038;-79
2023/10/20 09:41:24;;;;;;;4.85;3.58;;;7.70;99.90;;;;;;5021738;28;20623;-79
2023/10/20 09:43:52;;;;;;;4.63;3.30;;;7.70;99.90;;;;;;5038139;28;20079;-79
2023/10/20 09:46:43;;;;;;;4.85;3.20;;;7.70;99.90;;;;;;5024096;28;20049;-80
2023/10/20 09:49:15;;;;;;;3.67;2.90;;;7.70;99.90;;;;;;5023536;28;20540;-82
2023/10/20 09:51:45;;;;;;;3.65;2.60;;;7.70;99.90;;;;;;5010654;28;20048;-79
2023/10/20 09:54:24;;;;;;;4.43;3.03;;;7.70;99.90;;;;;;5026284;28;20045;-78
2023/10/20 09:56:51;;;;;;;4.25;3.10;;;7.70;99.90;;;;;;5004041;28;20038;-73
2023/10/20 09:59:24;;;;;;;3.92;2.80;;;7.70;99.90;;;;;;5021828;28;20105;-73
2023/10/20 10:01:52;;;;;;;4.68;2.85;;;7.70;99.90;;;;;;5040482;28;20073;-73
2023/10/20 10:04:29;;;;;;;3.55;2.70;;;7.60;99.90;;;;;;5003144;28;20058;-73
2023/10/20 10:06:55;;;;;;;3.45;2.67;;;7.60;99.90;;;;;;5007642;28;20050;-74
2023/10/20 10:09:22;;;;;;;3.13;2.33;;;7.60;99.90;;;;;;5020035;28;20041;-73
2023/10/20 10:11:49;;;;;;;3.65;2.67;;;7.60;99.90;;;;;;5021556;28;20037;-75
2023/10/20 10:14:22;;;;;;;3.10;2.58;;;7.60;99.90;;;;;;5003846;28;20453;-73
2023/10/20 10:16:52;;;;;;;2.70;1.90;;;7.60;99.90;;;;;;5006750;28;20041;-73
2023/10/20 10:19:18;;;;;;;2.78;2.20;;;7.50;99.90;;;;;;5006305;28;20375;-73
2023/10/20 10:21:53;;;;;;;3.67;2.10;;;7.60;99.90;;;;;;5019510;28;20049;-73
2023/10/20 10:24:21;;;;;;;2.20;1.73;;;7.60;99.90;;;;;;5017112;28;20476;-72
2023/10/20 10:26:59;;;;;;;2.75;2.10;;;7.50;99.90;;;;;;5020741;28;20042;-73
2023/10/20 10:30:00;;;;;;;2.88;1.92;;;7.50;99.90;;;;;;5018702;28;20092;-73
2023/10/20 10:32:31;;;;;;;1.95;1.58;;;7.50;99.90;;;;;;5013812;28;20076;-72
2023/10/20 10:34:58;;;;;;;2.13;1.60;;;7.60;99.90;;;;;;5000496;28;20503;-73
2023/10/20 10:37:37;;;;;;;2.88;1.77;;;7.50;99.90;;;;;;5023864;28;20049;-72
2023/10/20 10:40:08;;;;;;;2.80;1.70;;;7.50;99.90;;;;;;5014638;28;20050;-73
2023/10/20 10:42:47;;;;;;;3.03;1.50;;;7.50;99.90;;;;;;5030195;28;20080;-73
2023/10/20 10:45:22;;;;;;;1.98;1.33;;;7.50;99.90;;;;;;5011633;28;20053;-72
2023/10/20 10:47:49;;;;;;;2.75;1.58;;;7.50;99.90;;;;;;5016842;28;20061;-73
2023/10/20 10:50:16;;;;;;;2.13;1.20;;;7.50;99.90;;;;;;4999158;28;20116;-72
2023/10/20 10:52:45;;;;;;;3.30;1.58;;;7.50;99.90;;;;;;5016052;28;20095;-73
2023/10/20 10:55:11;;;;;;;1.77;1.33;;;7.50;99.90;;;;;;5020455;28;20448;-72
2023/10/20 10:57:38;;;;;;;2.17;1.48;;;7.40;99.90;;;;;;5007798;28;20059;-73
2023/10/20 11:00:06;;;;;;;2.30;1.30;;;7.50;99.90;;;;;;5007634;28;20052;-74
2023/10/20 11:02:32;;;;;;;2.33;1.55;;;7.40;99.90;;;;;;5001135;28;20060;-74
2023/10/20 11:05:02;;;;;;;2.22;1.50;;;7.40;99.90;;;;;;5002943;28;20049;-73
2023/10/20 11:07:28;;;;;;;2.25;1.60;;;7.40;99.90;;;;;;5000892;28;20508;-72
2023/10/20 11:09:55;;;;;;;2.08;1.42;;;7.40;99.90;;;;;;5007796;28;20049;-73
2023/10/20 11:12:22;;;;;;;2.10;1.20;;;7.40;99.90;;;;;;5018328;28;20057;-73
2023/10/20 11:14:48;;;;;;;1.85;1.20;;;7.40;99.90;;;;;;5020925;28;20518;-73
2023/10/20 11:17:14;;;;;;;1.55;1.10;;;7.40;99.90;;;;;;5018396;28;20046;-72
2023/10/20 11:19:41;;;;;;;2.75;1.60;;;7.30;99.90;;;;;;5006080;28;20656;-73
2023/10/20 11:22:17;;;;;;;2.15;1.20;;;7.40;99.90;;;;;;5005743;28;20507;-72
2023/10/20 11:24:52;;;;;;;1.67;0.98;;;7.40;99.90;;;;;;5015198;28;20042;-79
2023/10/20 11:27:18;;;;;;;2.28;1.10;;;7.40;99.90;;;;;;5005513;28;20405;-79
2023/10/20 11:29:45;;;;;;;1.52;0.80;;;7.40;99.90;;;;;;5019358;28;20049;-79
2023/10/20 11:32:13;;;;;;;2.05;1.00;;;7.40;99.90;;;;;;5008365;28;20399;-72
2023/10/20 11:34:40;;;;;;;1.95;0.90;;;7.40;99.90;;;;;;5017674;28;20063;-72
2023/10/20 11:37:05;;;;;;;1.73;1.20;;;7.40;99.90;;;;;;5025760;28;20052;-72
2023/10/20 11:39:36;;;;;;;1.77;1.23;;;7.40;99.90;;;;;;5037293;28;20045;-73
2023/10/20 11:42:03;;;;;;;2.00;1.30;;;7.40;99.90;;;;;;5002910;28;20045;-73
2023/10/20 11:44:32;;;;;;;2.17;1.40;;;7.40;99.90;;;;;;5002144;28;20053;-73
2023/10/20 11:46:58;;;;;;;1.40;1.00;;;7.40;99.90;;;;;;5018024;28;20506;-74
2023/10/20 11:49:26;;;;;;;1.40;1.00;;;7.40;99.90;;;;;;5036909;28;20773;-73
2023/10/20 11:51:53;;;;;;;2.17;1.30;;;7.40;99.90;;;;;;5006820;28;20045;-73
2023/10/20 11:54:22;;;;;;;2.88;1.20;;;7.40;99.90;;;;;;5022477;28;20053;-73
2023/10/20 11:56:48;;;;;;;1.27;0.95;;;7.40;99.90;;;;;;5020446;28;20112;-72
2023/10/20 11:59:14;;;;;;;1.95;1.75;;;7.40;99.90;;;;;;5001561;28;20132;-73
2023/10/20 12:01:40;;;;;;;1.73;1.10;;;7.50;99.90;;;;;;5018230;28;20084;-72
2023/10/20 12:04:08;;;;;;;2.50;1.20;;;7.40;99.90;;;;;;5016923;28;20045;-72
2023/10/20 12:06:36;;;;;;;1.95;1.08;;;7.40;99.90;;;;;;5038320;28;20060;-71
2023/10/20 12:09:10;;;;;;;1.63;1.15;;;7.40;99.90;;;;;;5001699;28;20053;-72
2023/10/20 12:11:37;;;;;;;1.50;0.85;;;7.40;99.90;;;;;;5006297;28;20135;-72
2023/10/20 12:14:06;;;;;;;1.63;0.98;;;7.40;99.90;;;;;;5019579;28;20042;-72
2023/10/20 12:16:31;;;;;;;1.58;1.00;;;7.40;99.90;;;;;;5019755;28;20140;-71
2023/10/20 12:19:06;;;;;;;1.52;1.10;;;7.40;99.90;;;;;;4997058;28;20135;-73
2023/10/20 12:21:32;;;;;;;1.92;1.20;;;7.40;99.90;;;;;;5002069;28;20084;-71
2023/10/20 12:23:58;;;;;;;2.30;1.05;;;7.40;99.90;;;;;;5001593;28;20430;-72
2023/10/20 12:26:24;;;;;;;2.30;1.15;;;7.40;99.90;;;;;;4996584;28;20057;-72
2023/10/20 12:28:50;;;;;;;1.88;1.05;;;7.30;99.90;;;;;;5017976;28;20473;-72
2023/10/20 12:31:17;;;;;;;1.58;1.10;;;7.40;99.90;;;;;;5005333;28;20087;-72
2023/10/20 12:33:44;;;;;;;1.50;1.10;;;7.30;99.90;;;;;;5017681;28;20054;-75
2023/10/20 12:36:17;;;;;;;2.83;1.10;;;7.40;99.90;;;;;;5020852;28;20057;-74
2023/10/20 12:38:43;;;;;;;1.10;0.90;;;7.40;99.90;;;;;;5019011;28;20673;-73
2023/10/20 12:41:11;;;;;;;1.45;1.05;;;7.40;99.90;;;;;;5022773;28;20357;-75
2023/10/20 12:43:37;;;;;;;1.73;1.15;;;7.40;99.90;;;;;;4999998;28;20195;-74
2023/10/20 12:46:04;;;;;;;1.00;0.82;;;7.40;99.90;;;;;;5006849;28;20046;-74
2023/10/20 12:48:30;;;;;;;1.33;1.20;;;7.40;99.90;;;;;;5002312;28;20111;-74
2023/10/20 12:50:57;;;;;;;2.00;0.95;;;7.40;99.90;;;;;;5016734;28;20133;-73
2023/10/20 12:53:23;;;;;;;1.33;0.80;;;7.30;99.90;;;;;;5004247;28;20041;-74
2023/10/20 12:55:52;;;;;;;1.52;1.00;;;7.30;99.90;;;;;;5003886;28;20403;-73
2023/10/20 12:58:18;;;;;;;1.45;0.90;;;7.30;99.90;;;;;;5006464;28;20487;-73
2023/10/20 13:00:45;;;;;;;1.48;0.80;;;7.30;99.90;;;;;;5018558;28;20268;-73
2023/10/20 13:03:11;;;;;;;1.27;0.80;;;7.30;99.90;;;;;;5019511;28;20077;-74
2023/10/20 13:05:36;;;;;;;2.03;0.95;;;7.30;99.90;;;;;;5005901;28;20072;-73
2023/10/20 13:08:02;;;;;;;1.77;1.10;;;7.30;99.90;;;;;;5033099;28;20511;-74
2023/10/20 13:10:28;;;;;;;1.13;1.00;;;7.30;99.90;;;;;;5018267;28;20107;-73
2023/10/20 13:12:54;;;;;;;1.10;0.85;;;7.30;99.90;;;;;;5018381;28;20041;-74
2023/10/20 13:15:20;;;;;;;1.23;0.90;;;7.20;99.90;;;;;;5035038;28;20042;-74
2023/10/20 13:17:46;;;;;;;1.88;1.10;;;7.20;99.90;;;;;;5005868;28;20039;-74